Time;durP1;ratioP1;P1;durP2;ratioP2;P2;SDS_P1;SDS_P2;PMS_P1;PMS_P2;Temp;Humidity;BMP_temperature;BMP_pressure;BME280_temperature;BME280_humidity;BME280_pressure;Samples;Min_cycle;Max_cycle;Signal;HPM_P1;HPM_P2
2021/12/25 00:00:14;;;;;;;12.52;6.07;;;4.40;99.90;;;;;;5064906;28;20025;-84
2021/12/25 00:02:43;;;;;;;11.77;6.38;;;4.40;99.90;;;;;;5084357;28;20377;-83
2021/12/25 00:05:11;;;;;;;9.13;5.90;;;4.30;99.90;;;;;;5050881;28;20059;-81
2021/12/25 00:07:36;;;;;;;9.73;6.22;;;4.30;99.90;;;;;;5067268;28;20036;-81
2021/12/25 00:10:04;;;;;;;10.15;5.22;;;4.30;99.90;;;;;;5067053;28;20059;-81
2021/12/25 00:12:31;;;;;;;11.00;6.32;;;4.20;99.90;;;;;;5067375;28;20036;-81
2021/12/25 00:14:56;;;;;;;10.27;5.35;;;4.10;99.90;;;;;;5060812;28;20024;-81
2021/12/25 00:17:22;;;;;;;10.15;5.30;;;4.10;99.90;;;;;;5052352;28;20027;-81
2021/12/25 00:19:48;;;;;;;11.27;6.25;;;4.10;99.90;;;;;;5054010;28;20033;-81
2021/12/25 00:22:14;;;;;;;8.57;4.38;;;4.10;99.90;;;;;;5068229;28;20029;-80
2021/12/25 00:24:43;;;;;;;8.15;4.80;;;4.10;99.90;;;;;;5062194;28;20032;-82
2021/12/25 00:32:46;;;;;;;10.25;5.78;;;4.00;99.90;;;;;;5027134;28;20050;-82
2021/12/25 00:35:12;;;;;;;9.30;5.03;;;4.00;99.90;;;;;;5010676;28;20034;-82
2021/12/25 00:37:38;;;;;;;8.25;4.35;;;3.90;99.90;;;;;;5010614;28;20044;-82
2021/12/25 00:40:05;;;;;;;8.30;4.53;;;3.90;99.90;;;;;;5007039;28;20030;-81
2021/12/25 00:42:31;;;;;;;8.40;4.70;;;3.90;99.90;;;;;;5007103;28;20077;-81
2021/12/25 00:44:56;;;;;;;10.38;5.30;;;3.90;99.90;;;;;;5007263;28;20034;-82
2021/12/25 00:47:23;;;;;;;9.25;5.00;;;3.90;99.90;;;;;;4991008;28;20034;-82
2021/12/25 00:49:49;;;;;;;9.52;5.10;;;3.90;99.90;;;;;;4990872;28;20126;-82
2021/12/25 00:52:14;;;;;;;10.57;6.65;;;3.90;99.90;;;;;;5007210;28;20073;-82
2021/12/25 00:54:40;;;;;;;9.82;5.97;;;3.80;99.90;;;;;;4990663;28;20049;-82
2021/12/25 00:57:07;;;;;;;12.50;6.80;;;3.90;99.90;;;;;;5007034;28;20037;-81
2021/12/25 00:59:32;;;;;;;13.27;6.85;;;3.80;99.90;;;;;;4990341;28;20081;-82
2021/12/25 01:01:58;;;;;;;14.50;7.82;;;3.80;99.90;;;;;;4990623;28;20030;-82
2021/12/25 01:04:25;;;;;;;12.18;7.22;;;3.80;99.90;;;;;;4990647;28;20391;-82
2021/12/25 01:06:51;;;;;;;12.77;7.50;;;3.60;99.90;;;;;;5017050;28;20040;-82
2021/12/25 01:09:17;;;;;;;10.02;6.25;;;3.60;99.90;;;;;;5050558;28;20033;-82
2021/12/25 01:11:46;;;;;;;14.15;7.35;;;3.60;99.90;;;;;;5034300;28;20385;-82
2021/12/25 01:14:39;;;;;;;15.80;9.70;;;3.50;99.90;;;;;;5067309;28;20036;-82
2021/12/25 01:20:05;;;;;;;15.23;8.55;;;3.40;99.90;;;;;;5050377;28;20037;-83
2021/12/25 01:39:40;;;;;;;13.38;8.57;;;3.10;99.90;;;;;;4986447;28;20087;-82
2021/12/25 01:48:34;;;;;;;16.67;8.77;;;3.00;99.90;;;;;;4970627;28;20093;-86
2021/12/25 01:51:00;;;;;;;18.40;10.13;;;3.00;99.90;;;;;;4970571;28;20124;-83
2021/12/25 01:53:25;;;;;;;17.45;9.65;;;2.90;99.90;;;;;;4970335;28;20070;-82
2021/12/25 01:55:51;;;;;;;17.60;10.95;;;2.90;99.90;;;;;;4986554;28;20054;-82
2021/12/25 01:58:17;;;;;;;20.52;11.95;;;2.90;99.90;;;;;;4970092;28;20038;-83
2021/12/25 02:00:47;;;;;;;20.27;11.13;;;2.70;99.90;;;;;;4986345;28;20050;-82
2021/12/25 02:03:16;;;;;;;19.25;10.98;;;2.80;99.90;;;;;;4986487;28;20118;-82
2021/12/25 02:05:42;;;;;;;22.20;12.77;;;2.80;99.90;;;;;;4970170;28;20358;-82
2021/12/25 02:08:09;;;;;;;21.83;12.32;;;2.70;99.90;;;;;;5040876;28;20045;-83
2021/12/25 02:10:35;;;;;;;21.70;12.45;;;2.80;99.90;;;;;;5085934;28;20024;-82
2021/12/25 02:13:02;;;;;;;21.35;12.73;;;2.70;99.90;;;;;;5070021;28;20046;-82
2021/12/25 02:15:29;;;;;;;22.02;12.88;;;2.70;99.90;;;;;;5052764;28;20036;-82
2021/12/25 02:21:11;;;;;;;23.90;13.45;;;2.60;99.90;;;;;;5087504;28;20098;-84
2021/12/25 02:23:38;;;;;;;25.83;14.40;;;2.60;99.90;;;;;;5085956;28;20033;-81
2021/12/25 02:26:06;;;;;;;22.77;12.85;;;2.50;99.90;;;;;;5052770;28;20307;-84
2021/12/25 02:28:32;;;;;;;26.80;14.93;;;2.50;99.90;;;;;;5052743;28;20048;-83
2021/12/25 02:31:06;;;;;;;22.23;13.32;;;2.40;99.90;;;;;;5069007;28;20051;-82
2021/12/25 02:33:32;;;;;;;25.70;14.38;;;2.50;99.90;;;;;;5086048;28;20560;-83
2021/12/25 02:35:58;;;;;;;23.00;13.75;;;2.50;99.90;;;;;;5069340;28;20029;-84
2021/12/25 02:38:25;;;;;;;21.55;12.48;;;2.40;99.90;;;;;;5068820;28;20037;-82
2021/12/25 02:40:51;;;;;;;21.05;12.40;;;2.40;99.90;;;;;;5068740;28;20036;-83
2021/12/25 02:43:18;;;;;;;25.85;14.90;;;2.40;99.90;;;;;;5085992;28;20496;-82
2021/12/25 02:45:45;;;;;;;22.23;13.27;;;2.30;99.90;;;;;;5070808;28;20472;-82
2021/12/25 02:48:14;;;;;;;24.52;13.75;;;2.40;99.90;;;;;;5070441;28;20150;-85
2021/12/25 02:50:40;;;;;;;26.27;15.95;;;2.30;99.90;;;;;;5087157;28;20032;-83
2021/12/25 02:53:08;;;;;;;23.15;13.88;;;2.30;99.90;;;;;;5052349;28;20078;-88
2021/12/25 02:55:36;;;;;;;25.88;14.45;;;2.30;99.90;;;;;;5068917;28;20472;-83
2021/12/25 02:58:02;;;;;;;23.48;13.05;;;2.30;99.90;;;;;;5068810;28;20033;-83
2021/12/25 03:00:35;;;;;;;24.85;13.68;;;2.30;99.90;;;;;;5068427;28;20044;-83
2021/12/25 03:03:03;;;;;;;23.83;12.93;;;2.30;99.90;;;;;;5068367;28;20037;-83
2021/12/25 03:05:29;;;;;;;25.17;13.65;;;2.30;99.90;;;;;;5068732;28;20028;-84
2021/12/25 03:07:54;;;;;;;25.65;14.13;;;2.30;99.90;;;;;;5068719;28;20048;-83
2021/12/25 03:10:22;;;;;;;27.77;15.27;;;2.30;99.90;;;;;;5068373;28;20115;-83
2021/12/25 03:15:26;;;;;;;28.25;14.00;;;2.20;99.90;;;;;;5085515;28;20054;-83
2021/12/25 03:17:52;;;;;;;26.35;13.13;;;2.20;99.90;;;;;;5085122;28;20028;-82
2021/12/25 03:20:19;;;;;;;25.92;13.57;;;2.20;99.90;;;;;;5068134;28;20488;-83
2021/12/25 03:22:44;;;;;;;26.25;12.68;;;2.10;99.90;;;;;;5068443;28;20036;-84
2021/12/25 03:25:14;;;;;;;25.42;13.30;;;2.00;99.90;;;;;;5068437;28;20040;-83
2021/12/25 03:30:28;;;;;;;23.67;12.13;;;2.00;99.90;;;;;;5023467;28;20413;-82
2021/12/25 03:32:55;;;;;;;22.60;12.88;;;1.90;99.90;;;;;;5023932;28;20052;-83
2021/12/25 03:35:21;;;;;;;25.02;11.38;;;1.90;99.90;;;;;;5024259;28;20042;-83
2021/12/25 03:37:46;;;;;;;20.23;10.90;;;1.90;99.90;;;;;;5023919;28;20044;-82
2021/12/25 03:40:12;;;;;;;19.50;10.15;;;1.80;99.90;;;;;;5024015;28;20061;-82
2021/12/25 03:42:38;;;;;;;22.25;10.27;;;1.70;99.90;;;;;;5007473;28;20113;-83
2021/12/25 03:45:04;;;;;;;20.10;9.02;;;1.70;99.90;;;;;;5007538;28;20279;-83
2021/12/25 03:47:35;;;;;;;17.70;8.50;;;1.70;99.90;;;;;;5007397;28;20042;-83
2021/12/25 03:58:13;;;;;;;18.75;7.70;;;1.60;99.90;;;;;;5023480;28;20029;-83
2021/12/25 04:00:41;;;;;;;13.13;7.70;;;1.60;99.90;;;;;;5024065;28;20045;-83
2021/12/25 04:03:10;;;;;;;16.33;8.18;;;1.60;99.90;;;;;;5007812;28;20054;-83
2021/12/25 04:05:44;;;;;;;14.07;7.47;;;1.60;99.90;;;;;;5022802;28;20022;-83
2021/12/25 04:08:13;;;;;;;16.92;7.32;;;1.60;99.90;;;;;;5042591;28;20203;-82
2021/12/25 04:10:43;;;;;;;16.55;8.00;;;1.50;99.90;;;;;;5081260;28;20071;-85
2021/12/25 04:13:12;;;;;;;13.18;7.28;;;1.60;99.90;;;;;;5047794;28;20041;-83
2021/12/25 04:15:39;;;;;;;15.52;8.10;;;1.50;99.90;;;;;;5081341;28;20092;-83
2021/12/25 04:18:05;;;;;;;14.00;7.70;;;1.50;99.90;;;;;;5081086;28;20036;-83
2021/12/25 04:20:31;;;;;;;17.60;7.72;;;1.50;99.90;;;;;;5064403;28;20029;-84
2021/12/25 04:23:05;;;;;;;14.30;6.93;;;1.40;99.90;;;;;;5080830;28;20104;-83
2021/12/25 04:25:33;;;;;;;15.93;6.80;;;1.40;99.90;;;;;;5047674;28;20512;-82
2021/12/25 04:49:03;;;;;;;8.18;4.40;;;1.30;99.90;;;;;;5003454;28;20034;-83
2021/12/25 05:05:00;;;;;;;8.60;3.50;;;1.00;99.90;;;;;;5006997;28;20038;-83
2021/12/25 05:07:50;;;;;;;5.93;2.97;;;1.00;99.90;;;;;;5024803;28;20101;-83
2021/12/25 05:10:15;;;;;;;6.70;2.53;;;1.00;99.90;;;;;;5030798;28;20057;-83
2021/12/25 05:12:42;;;;;;;7.18;2.53;;;1.00;99.90;;;;;;5031052;28;20025;-83
2021/12/25 05:15:08;;;;;;;5.30;1.75;;;0.80;99.90;;;;;;5030917;28;20037;-83
2021/12/25 05:17:34;;;;;;;4.88;1.67;;;0.80;99.90;;;;;;5031047;28;20442;-83
2021/12/25 05:19:59;;;;;;;2.75;1.00;;;0.80;99.90;;;;;;5030820;28;20038;-85
2021/12/25 05:22:26;;;;;;;4.28;1.15;;;0.70;99.90;;;;;;5030810;28;20124;-83
2021/12/25 05:24:52;;;;;;;2.72;0.90;;;0.70;99.90;;;;;;5014407;28;20091;-83
2021/12/25 05:27:18;;;;;;;2.83;0.77;;;0.70;99.90;;;;;;5030889;28;20033;-84
2021/12/25 05:29:46;;;;;;;2.92;0.95;;;0.60;99.90;;;;;;5030667;28;20056;-84
2021/12/25 05:32:16;;;;;;;3.13;0.80;;;0.50;99.90;;;;;;5046183;28;20064;-84
2021/12/25 05:35:02;;;;;;;1.98;0.80;;;0.50;99.90;;;;;;5033448;28;20037;-84
2021/12/25 05:37:58;;;;;;;1.33;0.50;;;0.50;99.90;;;;;;5018452;28;20067;-84
2021/12/25 05:40:44;;;;;;;4.30;0.60;;;0.50;99.90;;;;;;5053135;28;20039;-84
2021/12/25 05:43:10;;;;;;;6.15;0.90;;;0.40;99.90;;;;;;5050390;28;20098;-84
2021/12/25 05:45:36;;;;;;;3.25;0.70;;;0.40;99.90;;;;;;5067204;28;20029;-84
2021/12/25 05:48:06;;;;;;;3.10;0.70;;;0.30;99.90;;;;;;5034424;28;20420;-84
2021/12/25 05:50:55;;;;;;;4.88;0.80;;;0.40;99.90;;;;;;5051963;28;20029;-84
2021/12/25 05:53:41;;;;;;;2.40;0.68;;;0.20;99.90;;;;;;5053133;28;20045;-84
2021/12/25 05:56:25;;;;;;;1.75;0.70;;;0.30;99.90;;;;;;5052993;28;20029;-85
2021/12/25 05:58:51;;;;;;;2.95;0.90;;;0.20;99.90;;;;;;5050053;28;20032;-85
2021/12/25 06:01:28;;;;;;;4.47;0.90;;;0.30;99.90;;;;;;5051661;28;20025;-84
2021/12/25 06:03:56;;;;;;;2.05;0.90;;;0.20;99.90;;;;;;5050426;28;20029;-84
2021/12/25 06:06:23;;;;;;;3.03;1.08;;;0.20;99.90;;;;;;5066570;28;20604;-84
2021/12/25 06:08:48;;;;;;;3.88;1.52;;;0.20;99.90;;;;;;5033308;28;20037;-84
2021/12/25 06:11:16;;;;;;;4.22;0.90;;;0.10;99.90;;;;;;5050131;28;20029;-85
2021/12/25 06:13:54;;;;;;;2.80;1.00;;;0.10;99.90;;;;;;5048916;28;20029;-83
2021/12/25 06:16:20;;;;;;;2.70;1.25;;;0.00;99.90;;;;;;5049917;28;20028;-84
2021/12/25 06:18:58;;;;;;;6.47;1.35;;;0.00;99.90;;;;;;5051436;28;20093;-84
2021/12/25 06:21:25;;;;;;;2.83;1.30;;;0.00;99.90;;;;;;5049691;28;20025;-84
2021/12/25 06:24:25;;;;;;;2.88;1.65;;;0.00;99.90;;;;;;5035627;28;20048;-85
2021/12/25 06:27:08;;;;;;;2.70;1.30;;;0.00;99.90;;;;;;5047144;28;20087;-85
2021/12/25 06:29:54;;;;;;;2.88;1.30;;;-0.10;99.90;;;;;;5022075;28;20043;-85
2021/12/25 06:32:54;;;;;;;4.60;1.70;;;-0.10;99.90;;;;;;5049483;28;20090;-85
2021/12/25 06:35:46;;;;;;;4.18;2.03;;;-0.10;99.90;;;;;;5066360;28;20031;-85
2021/12/25 06:38:41;;;;;;;3.45;1.42;;;-0.10;99.90;;;;;;5054654;28;20041;-85
2021/12/25 06:41:19;;;;;;;5.38;1.58;;;-0.20;99.90;;;;;;5045830;28;20026;-86
2021/12/25 06:43:45;;;;;;;3.30;1.55;;;-0.20;99.90;;;;;;5046164;28;20048;-89
2021/12/25 06:46:16;;;;;;;4.43;2.22;;;-0.30;99.90;;;;;;5046035;28;20117;-85
2021/12/25 06:48:42;;;;;;;5.32;1.90;;;-0.30;99.90;;;;;;5046157;28;20033;-86
2021/12/25 06:51:11;;;;;;;4.32;2.13;;;-0.30;99.90;;;;;;5046389;28;20041;-85
2021/12/25 06:53:55;;;;;;;3.08;1.52;;;-0.30;99.90;;;;;;5046060;28;20064;-85
2021/12/25 06:56:28;;;;;;;3.58;1.77;;;-0.30;99.90;;;;;;5045572;28;20037;-87
2021/12/25 06:59:01;;;;;;;5.18;1.80;;;-0.30;99.90;;;;;;5044486;28;20036;-86
2021/12/25 07:01:28;;;;;;;3.20;1.20;;;-0.40;99.90;;;;;;5045588;28;20037;-85
2021/12/25 07:03:54;;;;;;;3.90;1.73;;;-0.30;99.90;;;;;;5045865;28;20063;-86
2021/12/25 07:06:40;;;;;;;3.72;1.88;;;-0.40;99.90;;;;;;5045977;28;20105;-85
2021/12/25 07:09:28;;;;;;;3.17;1.52;;;-0.40;99.90;;;;;;5045800;28;20141;-85
2021/12/25 07:12:01;;;;;;;3.28;1.50;;;-0.40;99.90;;;;;;5045810;28;20025;-86
2021/12/25 07:14:49;;;;;;;4.28;1.63;;;-0.40;99.90;;;;;;5042833;28;20121;-86
2021/12/25 07:17:38;;;;;;;3.58;1.75;;;-0.50;99.90;;;;;;5040606;28;20488;-85
2021/12/25 07:20:39;;;;;;;4.57;1.90;;;-0.50;99.90;;;;;;5045756;28;20112;-85
2021/12/25 07:23:15;;;;;;;3.90;1.60;;;-0.50;99.90;;;;;;5045352;28;20073;-86
2021/12/25 07:26:09;;;;;;;4.45;1.40;;;-0.50;99.90;;;;;;5045308;28;20025;-87
2021/12/25 07:28:39;;;;;;;3.95;1.60;;;-0.50;99.90;;;;;;5045064;28;20097;-85
2021/12/25 07:31:06;;;;;;;4.10;1.50;;;-0.60;99.90;;;;;;5045240;28;20052;-85
2021/12/25 07:33:32;;;;;;;3.50;1.90;;;-0.70;99.90;;;;;;5046554;28;20029;-89
2021/12/25 07:35:58;;;;;;;6.15;2.25;;;-0.60;99.90;;;;;;5028562;28;20448;-86
2021/12/25 07:38:24;;;;;;;4.38;1.92;;;-0.70;99.90;;;;;;5031693;28;20024;-85
2021/12/25 07:40:50;;;;;;;3.80;1.42;;;-0.70;99.90;;;;;;5065001;28;20455;-86
2021/12/25 07:43:17;;;;;;;3.75;1.70;;;-0.70;99.90;;;;;;5065099;28;20155;-87
2021/12/25 07:46:10;;;;;;;5.97;1.58;;;-0.70;99.90;;;;;;5061401;28;20025;-87
2021/12/25 07:48:35;;;;;;;5.32;2.08;;;-0.80;99.90;;;;;;5064876;28;20044;-86
2021/12/25 07:51:04;;;;;;;3.88;1.80;;;-0.80;99.90;;;;;;5031755;28;20029;-86
2021/12/25 07:53:31;;;;;;;5.10;2.00;;;-0.90;99.90;;;;;;5064855;28;20059;-87
2021/12/25 07:55:57;;;;;;;4.72;1.95;;;-0.90;99.90;;;;;;5064675;28;20389;-85
2021/12/25 07:58:22;;;;;;;5.32;2.20;;;-1.00;99.90;;;;;;5048108;28;20029;-86
2021/12/25 08:00:48;;;;;;;5.00;2.60;;;-0.90;99.90;;;;;;5048280;28;20044;-86
2021/12/25 08:03:16;;;;;;;4.80;2.15;;;-0.90;99.90;;;;;;5031503;28;20066;-86
2021/12/25 08:05:42;;;;;;;5.00;1.88;;;-1.00;99.90;;;;;;5031113;28;20039;-88
2021/12/25 08:08:10;;;;;;;4.28;2.22;;;-1.00;99.90;;;;;;5047234;28;20284;-88
2021/12/25 08:10:36;;;;;;;4.50;1.88;;;-1.00;99.90;;;;;;5030753;28;20087;-86
2021/12/25 08:13:02;;;;;;;5.55;2.15;;;-1.00;99.90;;;;;;5047161;28;20060;-86
2021/12/25 08:15:29;;;;;;;4.13;2.08;;;-1.10;99.90;;;;;;5063781;28;20059;-87
2021/12/25 08:17:57;;;;;;;3.97;1.52;;;-1.10;99.90;;;;;;5047214;28;20028;-86
2021/12/25 08:20:31;;;;;;;3.40;1.75;;;-1.20;99.90;;;;;;5064063;28;20033;-86
2021/12/25 08:23:15;;;;;;;3.25;1.50;;;-1.20;99.90;;;;;;5063943;28;20060;-86
2021/12/25 08:26:01;;;;;;;4.00;1.65;;;-1.30;99.90;;;;;;5064200;28;20032;-87
2021/12/25 08:28:47;;;;;;;3.85;1.20;;;-1.40;99.90;;;;;;5063424;28;20550;-87
2021/12/25 08:31:31;;;;;;;4.00;1.17;;;-1.40;99.90;;;;;;5049861;28;20116;-87
2021/12/25 08:34:28;;;;;;;1.80;0.70;;;-1.50;99.90;;;;;;5064123;28;20114;-87
2021/12/25 08:37:01;;;;;;;3.67;1.00;;;-1.50;99.90;;;;;;5047743;28;20094;-87
2021/12/25 08:39:27;;;;;;;4.97;0.90;;;-1.40;99.90;;;;;;5051050;28;20029;-87
2021/12/25 08:42:01;;;;;;;1.85;0.80;;;-1.50;99.90;;;;;;5050803;28;20119;-87
2021/12/25 08:44:33;;;;;;;1.95;0.60;;;-1.50;99.90;;;;;;5067930;28;20052;-88
2021/12/25 08:47:00;;;;;;;3.72;0.50;;;-1.50;99.90;;;;;;5067709;28;20032;-87
2021/12/25 08:49:29;;;;;;;2.38;0.60;;;-1.50;99.90;;;;;;5067575;28;20068;-88
2021/12/25 08:51:56;;;;;;;4.30;0.50;;;-1.60;99.90;;;;;;5050927;28;20025;-87
2021/12/25 08:54:22;;;;;;;2.38;0.60;;;-1.60;99.90;;;;;;5050886;28;20049;-87
2021/12/25 08:56:48;;;;;;;1.60;0.35;;;-1.60;99.90;;;;;;5067183;28;20082;-87
2021/12/25 08:59:14;;;;;;;1.70;0.40;;;-1.60;99.90;;;;;;5050538;28;20115;-87
2021/12/25 09:01:39;;;;;;;1.58;0.40;;;-1.60;99.90;;;;;;5050637;28;20033;-88
2021/12/25 09:04:05;;;;;;;2.38;0.40;;;-1.60;99.90;;;;;;5050718;28;20041;-87
2021/12/25 09:06:31;;;;;;;2.30;0.40;;;-1.60;99.90;;;;;;5050275;28;20029;-86
2021/12/25 09:08:56;;;;;;;1.27;0.40;;;-1.50;99.90;;;;;;5050672;28;20071;-87
2021/12/25 09:11:24;;;;;;;2.38;0.30;;;-1.60;99.90;;;;;;5050136;28;20036;-86
2021/12/25 09:13:50;;;;;;;1.85;0.50;;;-1.60;99.90;;;;;;5066828;28;20057;-88
2021/12/25 09:16:15;;;;;;;1.45;0.30;;;-1.60;99.90;;;;;;5050678;28;20140;-86
2021/12/25 09:18:41;;;;;;;1.15;0.40;;;-1.60;99.90;;;;;;5066809;28;20028;-88
2021/12/25 09:21:07;;;;;;;1.77;0.30;;;-1.50;99.90;;;;;;5050025;28;20393;-88
2021/12/25 09:23:33;;;;;;;1.52;0.30;;;-1.40;99.90;;;;;;5050152;28;20045;-86
2021/12/25 09:25:59;;;;;;;1.35;0.30;;;-1.40;99.90;;;;;;5050007;28;20037;-87
2021/12/25 09:28:24;;;;;;;1.60;0.30;;;-1.30;99.90;;;;;;5033405;28;20063;-88
2021/12/25 09:30:50;;;;;;;1.35;0.20;;;-1.30;99.90;;;;;;5031155;28;20053;-86
2021/12/25 09:33:16;;;;;;;2.10;0.20;;;-1.20;99.90;;;;;;5033691;28;20163;-87
2021/12/25 09:35:42;;;;;;;1.08;0.30;;;-1.20;99.90;;;;;;5033449;28;20043;-87
2021/12/25 09:38:08;;;;;;;1.42;0.30;;;-1.30;99.90;;;;;;5049859;28;20081;-88
2021/12/25 09:40:33;;;;;;;1.17;0.30;;;-1.30;99.90;;;;;;5050116;28;20044;-87
2021/12/25 09:42:59;;;;;;;1.50;0.20;;;-1.20;99.90;;;;;;5028176;28;20040;-88
2021/12/25 09:45:25;;;;;;;1.25;0.20;;;-1.10;99.90;;;;;;5050072;28;20040;-87
2021/12/25 09:47:51;;;;;;;0.85;0.30;;;-1.00;99.90;;;;;;5049388;28;20033;-89
2021/12/25 09:50:17;;;;;;;5.55;0.30;;;-1.00;99.90;;;;;;5048532;28;20035;-86
2021/12/25 09:52:43;;;;;;;1.08;0.30;;;-0.90;99.90;;;;;;5049423;28;20029;-87
2021/12/25 09:55:11;;;;;;;0.85;0.20;;;-1.00;99.90;;;;;;5033144;28;20037;-87
2021/12/25 09:57:36;;;;;;;3.13;0.22;;;-1.10;99.90;;;;;;5032405;28;20079;-87
2021/12/25 10:00:29;;;;;;;1.08;0.28;;;-0.90;99.90;;;;;;5049075;28;20033;-88
2021/12/25 10:02:57;;;;;;;1.33;0.30;;;-0.80;99.90;;;;;;5045347;28;20084;-88
2021/12/25 10:05:36;;;;;;;0.88;0.20;;;-0.70;99.90;;;;;;5032968;28;20055;-88
2021/12/25 10:08:11;;;;;;;0.32;0.10;;;-0.90;99.90;;;;;;5049480;28;20033;-88
2021/12/25 10:10:41;;;;;;;1.30;0.25;;;-0.80;99.90;;;;;;5033130;28;20029;-89
2021/12/25 10:13:22;;;;;;;0.45;0.15;;;-0.70;99.90;;;;;;5032212;28;20043;-88
2021/12/25 10:15:49;;;;;;;1.70;0.30;;;-0.60;99.90;;;;;;5032725;28;20398;-89
2021/12/25 10:18:23;;;;;;;0.90;0.20;;;-0.70;99.90;;;;;;5048654;28;20033;-89
2021/12/25 10:20:49;;;;;;;1.02;0.20;;;-0.60;99.90;;;;;;5032719;28;20036;-90
2021/12/25 10:23:22;;;;;;;0.38;0.10;;;-0.60;99.90;;;;;;5049200;28;20135;-89
2021/12/25 10:26:00;;;;;;;0.60;0.20;;;-0.50;99.90;;;;;;5032917;28;20430;-86
2021/12/25 10:28:30;;;;;;;0.60;0.20;;;-0.50;99.90;;;;;;5032020;28;20035;-86
2021/12/25 10:31:14;;;;;;;0.90;0.20;;;-0.50;99.90;;;;;;5048158;28;20048;-90
2021/12/25 10:33:44;;;;;;;0.35;0.10;;;-0.50;99.90;;;;;;5069120;28;20033;-90
2021/12/25 10:36:21;;;;;;;;;;;-0.20;99.90;;;;;;5069349;28;20028;-87
2021/12/25 10:38:58;;;;;;;1.52;0.20;;;-0.30;99.90;;;;;;5061104;28;19916;-87
2021/12/25 10:41:24;;;;;;;1.05;0.20;;;-0.30;99.90;;;;;;5032030;28;20033;-87
2021/12/25 10:44:08;;;;;;;1.67;0.20;;;-0.40;99.90;;;;;;5031676;28;20037;-88
2021/12/25 10:46:47;;;;;;;0.55;0.15;;;-0.20;99.90;;;;;;5032269;28;20032;-88
2021/12/25 10:49:13;;;;;;;1.33;0.20;;;-0.10;99.90;;;;;;5041669;28;20033;-87
2021/12/25 10:51:39;;;;;;;0.65;0.20;;;-0.20;99.90;;;;;;5032059;28;20469;-88
2021/12/25 10:54:06;;;;;;;0.90;0.10;;;-0.10;99.90;;;;;;5032279;28;20036;-89
2021/12/25 10:56:38;;;;;;;0.68;0.10;;;-0.10;99.90;;;;;;5031793;28;20089;-87
2021/12/25 10:59:07;;;;;;;2.95;0.20;;;-0.10;99.90;;;;;;5031679;28;20029;-85
2021/12/25 11:01:38;;;;;;;0.68;0.15;;;0.00;99.90;;;;;;5032616;28;20029;-87
2021/12/25 11:04:06;;;;;;;0.50;0.10;;;-0.10;99.90;;;;;;5033656;28;20041;-87
2021/12/25 11:06:40;;;;;;;1.42;0.20;;;-0.20;99.90;;;;;;5033865;28;20069;-88
2021/12/25 11:09:07;;;;;;;0.85;0.20;;;-0.10;99.90;;;;;;5048285;28;20040;-88
2021/12/25 11:11:33;;;;;;;1.10;0.20;;;0.10;99.90;;;;;;5048071;28;20036;-86
2021/12/25 11:14:01;;;;;;;1.70;0.20;;;0.00;99.90;;;;;;5066036;28;20040;-87
2021/12/25 11:16:34;;;;;;;0.75;0.10;;;0.00;99.90;;;;;;5031598;28;20040;-88
2021/12/25 11:19:11;;;;;;;1.20;0.10;;;0.10;99.90;;;;;;5031474;28;20029;-87
2021/12/25 11:21:43;;;;;;;1.10;0.10;;;0.30;99.90;;;;;;5031436;28;20056;-85
2021/12/25 11:24:10;;;;;;;1.15;0.10;;;0.30;99.90;;;;;;5045002;28;20040;-88
2021/12/25 11:26:37;;;;;;;0.82;0.13;;;0.30;99.90;;;;;;5031466;28;20029;-88
2021/12/25 11:29:05;;;;;;;0.30;0.10;;;0.30;99.90;;;;;;5048096;28;20114;-87
2021/12/25 11:31:33;;;;;;;1.60;0.17;;;0.10;99.90;;;;;;5051305;28;20044;-91
2021/12/25 11:33:58;;;;;;;1.88;0.20;;;0.30;99.90;;;;;;5051343;28;20044;-89
2021/12/25 11:36:24;;;;;;;1.90;0.10;;;0.40;99.90;;;;;;5051249;28;20028;-89
2021/12/25 11:38:51;;;;;;;1.30;0.20;;;0.30;99.90;;;;;;5047574;28;20035;-89
2021/12/25 11:41:18;;;;;;;1.13;0.20;;;0.40;99.90;;;;;;5064616;28;20097;-88
2021/12/25 11:43:46;;;;;;;0.88;0.20;;;0.40;99.90;;;;;;5064088;28;20488;-89
2021/12/25 11:46:15;;;;;;;1.75;0.13;;;0.40;99.90;;;;;;5047864;28;20438;-87
2021/12/25 11:48:41;;;;;;;0.40;0.10;;;0.50;99.90;;;;;;5047780;28;20059;-88
2021/12/25 11:51:28;;;;;;;1.10;0.20;;;0.40;99.90;;;;;;5053115;28;20029;-87
2021/12/25 11:58:59;;;;;;;1.30;0.20;;;0.60;99.90;;;;;;5047192;28;20469;-87
2021/12/25 12:01:40;;;;;;;0.80;0.10;;;0.70;99.90;;;;;;5030486;28;20077;-88
2021/12/25 12:04:14;;;;;;;0.70;0.17;;;0.50;99.90;;;;;;5031184;28;20100;-88
2021/12/25 12:06:46;;;;;;;0.57;0.20;;;0.50;99.90;;;;;;5064097;28;20185;-86
2021/12/25 12:09:13;;;;;;;2.55;0.20;;;0.60;99.90;;;;;;5047146;28;20033;-87
2021/12/25 12:12:19;;;;;;;2.55;0.40;;;0.60;99.90;;;;;;5063420;28;20063;-87
2021/12/25 12:15:08;;;;;;;2.80;0.40;;;0.50;99.90;;;;;;5064026;28;20083;-87
2021/12/25 12:17:54;;;;;;;1.65;0.40;;;0.50;99.90;;;;;;5064019;28;20526;-87
2021/12/25 12:20:40;;;;;;;3.20;0.30;;;0.60;99.90;;;;;;5030648;28;20101;-85
2021/12/25 12:23:44;;;;;;;1.55;0.47;;;0.70;99.90;;;;;;5030262;28;20041;-88
2021/12/25 12:26:13;;;;;;;1.30;0.20;;;0.60;99.90;;;;;;5030721;28;20032;-87
2021/12/25 12:28:48;;;;;;;7.80;0.30;;;0.60;99.90;;;;;;5030568;28;20098;-86
2021/12/25 12:31:38;;;;;;;0.63;0.20;;;0.50;99.90;;;;;;5046845;28;20077;-88
2021/12/25 12:34:38;;;;;;;2.05;0.20;;;0.50;99.90;;;;;;5047161;28;20037;-86
2021/12/25 12:37:16;;;;;;;0.70;0.20;;;0.50;99.90;;;;;;5047169;28;20036;-86
2021/12/25 12:40:03;;;;;;;1.27;0.20;;;0.60;99.90;;;;;;5062158;28;20071;-87
2021/12/25 12:42:42;;;;;;;1.05;0.10;;;0.60;99.90;;;;;;5066992;28;20043;-86
2021/12/25 12:45:34;;;;;;;0.88;0.10;;;0.50;99.90;;;;;;5066706;28;20032;-87
2021/12/25 12:48:10;;;;;;;1.23;0.50;;;0.60;99.90;;;;;;5083721;28;20029;-87
2021/12/25 12:50:37;;;;;;;0.90;0.20;;;0.60;99.90;;;;;;5067037;28;20039;-85
2021/12/25 12:53:09;;;;;;;0.38;0.17;;;0.60;99.90;;;;;;5083465;28;20029;-85
2021/12/25 12:55:41;;;;;;;3.00;0.30;;;0.70;99.90;;;;;;5067814;28;20043;-84
2021/12/25 12:58:24;;;;;;;1.88;0.20;;;0.70;99.90;;;;;;5066700;28;20029;-87
2021/12/25 13:00:56;;;;;;;1.48;0.10;;;0.60;99.90;;;;;;5066646;28;20040;-86
2021/12/25 13:03:24;;;;;;;0.98;0.20;;;0.80;99.90;;;;;;5066794;28;20041;-85
2021/12/25 13:05:55;;;;;;;0.70;0.20;;;0.80;99.90;;;;;;5066865;28;20055;-86
2021/12/25 13:08:24;;;;;;;0.75;0.20;;;0.70;99.90;;;;;;5066355;28;20039;-87
2021/12/25 13:11:29;;;;;;;0.73;0.20;;;0.70;99.90;;;;;;5066566;28;20093;-85
2021/12/25 13:13:59;;;;;;;0.60;0.13;;;0.50;99.90;;;;;;5065373;28;20468;-87
2021/12/25 13:16:34;;;;;;;1.05;0.20;;;0.70;99.90;;;;;;5049416;28;20032;-85
2021/12/25 13:19:03;;;;;;;0.68;0.17;;;0.60;99.90;;;;;;5049834;28;20043;-86
2021/12/25 13:21:31;;;;;;;1.70;0.20;;;0.80;99.90;;;;;;5049267;28;20091;-86
2021/12/25 13:24:02;;;;;;;1.52;0.20;;;0.70;99.90;;;;;;5051161;28;20046;-87
2021/12/25 13:26:42;;;;;;;1.17;0.17;;;0.60;99.90;;;;;;5053527;28;20055;-86
2021/12/25 13:29:11;;;;;;;1.02;0.13;;;0.60;99.90;;;;;;5053066;28;20039;-87
2021/12/25 13:31:39;;;;;;;1.00;0.20;;;0.50;99.90;;;;;;5053375;28;20037;-87
2021/12/25 13:34:12;;;;;;;2.13;0.40;;;0.50;99.90;;;;;;5053579;28;20043;-87
2021/12/25 13:36:39;;;;;;;0.65;0.13;;;0.50;99.90;;;;;;5053814;28;20028;-88
2021/12/25 13:39:16;;;;;;;0.73;0.10;;;0.60;99.90;;;;;;5049440;28;20032;-88
2021/12/25 13:41:52;;;;;;;1.17;0.15;;;0.60;99.90;;;;;;5049939;28;20025;-89
2021/12/25 13:44:19;;;;;;;0.82;0.13;;;0.40;99.90;;;;;;5066421;28;20040;-87
2021/12/25 13:46:55;;;;;;;0.55;0.10;;;0.40;99.90;;;;;;5066344;28;20107;-88
2021/12/25 13:49:42;;;;;;;0.95;0.20;;;0.40;99.90;;;;;;5066500;28;20039;-88
2021/12/25 13:52:19;;;;;;;1.17;0.20;;;0.30;99.90;;;;;;5049639;28;20116;-86
2021/12/25 13:54:59;;;;;;;0.77;0.17;;;0.30;99.90;;;;;;5066253;28;20547;-88
2021/12/25 13:57:27;;;;;;;1.08;0.13;;;0.30;99.90;;;;;;5049587;28;20443;-88
2021/12/25 14:00:01;;;;;;;0.38;0.10;;;0.20;99.90;;;;;;5065979;28;20040;-90
2021/12/25 14:02:40;;;;;;;1.00;0.13;;;0.20;99.90;;;;;;5051526;28;20063;-87
2021/12/25 14:05:08;;;;;;;1.85;0.20;;;0.10;99.90;;;;;;5066167;28;20029;-91
2021/12/25 14:07:34;;;;;;;0.70;0.20;;;0.10;99.90;;;;;;5065807;28;20029;-88
2021/12/25 14:10:30;;;;;;;1.35;0.20;;;0.10;99.90;;;;;;5066219;28;20040;-90
2021/12/25 14:12:59;;;;;;;0.80;0.17;;;0.10;99.90;;;;;;5033207;28;20029;-89
2021/12/25 14:15:28;;;;;;;0.85;0.17;;;0.10;99.90;;;;;;5065848;28;20029;-88
2021/12/25 14:17:55;;;;;;;0.60;0.15;;;0.00;99.90;;;;;;5065852;28;20024;-88
2021/12/25 14:20:25;;;;;;;0.90;0.20;;;0.00;99.90;;;;;;5066109;28;20032;-90
2021/12/25 14:23:02;;;;;;;0.93;0.20;;;0.00;99.90;;;;;;5066065;28;20048;-88
2021/12/25 14:25:33;;;;;;;1.73;0.40;;;-0.10;99.90;;;;;;5049150;28;20063;-87
2021/12/25 14:28:23;;;;;;;0.45;0.10;;;-0.20;99.90;;;;;;5065598;28;20481;-88
2021/12/25 14:31:05;;;;;;;0.88;0.20;;;-0.20;99.90;;;;;;4930945;29;20062;-88
2021/12/25 14:33:35;;;;;;;0.80;0.10;;;-0.20;99.90;;;;;;4947266;29;20464;-89
2021/12/25 14:36:07;;;;;;;0.77;0.20;;;-0.20;99.90;;;;;;4930575;29;20090;-90
2021/12/25 14:38:38;;;;;;;1.17;0.10;;;-0.30;99.90;;;;;;4936629;29;20290;-88
2021/12/25 14:41:04;;;;;;;0.88;0.20;;;-0.30;99.90;;;;;;4934037;29;20043;-89